createdAt,value
2019-02-26T00:02:28.906Z,6.00
2019-02-26T00:05:00.808Z,5.93
2019-02-26T00:07:32.067Z,5.81
2019-02-26T00:10:02.596Z,5.83
2019-02-26T00:12:33.337Z,5.79
2019-02-26T00:15:06.285Z,5.81
2019-02-26T00:17:38.590Z,5.91
2019-02-26T00:20:10.939Z,5.75
2019-02-26T00:22:41.183Z,5.70
2019-02-26T00:25:15.294Z,5.70
2019-02-26T00:27:43.979Z,5.75
2019-02-26T00:30:16.652Z,5.81
2019-02-26T00:32:46.733Z,5.75
2019-02-26T00:35:18.937Z,5.66
2019-02-26T00:37:49.379Z,5.70
2019-02-26T00:40:20.265Z,5.75
2019-02-26T00:42:54.374Z,5.83
2019-02-26T00:45:24.668Z,5.83
2019-02-26T00:47:52.970Z,5.76
2019-02-26T00:50:22.505Z,5.60
2019-02-26T00:52:54.420Z,5.53
2019-02-26T00:55:27.364Z,5.54
2019-02-26T00:57:56.820Z,5.61
2019-02-26T01:00:26.827Z,5.66
2019-02-26T01:02:57.120Z,5.64
2019-02-26T01:05:26.682Z,5.64
2019-02-26T01:07:56.153Z,5.57
2019-02-26T01:10:25.778Z,5.49
2019-02-26T01:12:56.559Z,5.51
2019-02-26T01:15:26.396Z,5.50
2019-02-26T01:21:31.151Z,5.35
2019-02-26T01:24:02.419Z,5.56
2019-02-26T01:26:32.677Z,5.63
2019-02-26T01:29:02.840Z,5.59
2019-02-26T01:31:33.979Z,5.45
2019-02-26T01:34:03.632Z,5.33
2019-02-26T01:36:33.272Z,5.20
2019-02-26T01:39:02.867Z,5.20
2019-02-26T01:41:32.422Z,5.18
2019-02-26T01:44:02.014Z,5.35
2019-02-26T01:46:32.271Z,5.39
2019-02-26T01:49:04.541Z,5.45
2019-02-26T01:51:34.002Z,5.39
2019-02-26T01:54:05.199Z,5.22
2019-02-26T01:56:36.499Z,5.08
2019-02-26T01:59:05.956Z,5.00
2019-02-26T02:01:56.031Z,5.07
2019-02-26T02:04:45.856Z,4.92
2019-02-26T02:07:15.394Z,4.83
2019-02-26T02:09:48.669Z,4.58
2019-02-26T02:12:16.035Z,4.58
2019-02-26T02:14:45.501Z,4.55
2019-02-26T02:17:15.123Z,4.45
2019-02-26T02:19:44.565Z,4.39
2019-02-26T02:22:16.345Z,4.43
2019-02-26T02:24:46.679Z,4.32
2019-02-26T02:27:19.561Z,4.32
2019-02-26T02:29:48.847Z,4.35
2019-02-26T02:32:20.916Z,4.03
2019-02-26T02:34:50.352Z,4.21
2019-02-26T02:37:23.912Z,4.28
2019-02-26T02:39:51.378Z,4.28
2019-02-26T02:42:22.062Z,4.13
2019-02-26T02:44:53.230Z,3.96
2019-02-26T02:47:25.134Z,3.94
2019-02-26T02:49:55.925Z,3.96
2019-02-26T02:52:27.068Z,4.01
2019-02-26T02:54:56.470Z,4.02
2019-02-26T02:57:26.951Z,3.93
2019-02-26T02:59:59.514Z,3.84
2019-02-26T03:02:28.513Z,3.77
2019-02-26T03:04:57.956Z,3.74
2019-02-26T03:07:29.445Z,3.77
2019-02-26T03:10:03.895Z,3.77
2019-02-26T03:12:33.568Z,3.77
2019-02-26T03:15:05.477Z,3.75
2019-02-26T03:17:34.360Z,3.83
2019-02-26T03:20:07.677Z,3.95
2019-02-26T03:22:41.510Z,3.91
2019-02-26T03:25:16.561Z,3.88
2019-02-26T03:27:44.815Z,3.79
2019-02-26T03:30:26.201Z,3.79
2019-02-26T03:32:55.961Z,3.76
2019-02-26T03:35:23.066Z,3.57
2019-02-26T03:37:52.407Z,3.50
2019-02-26T03:40:24.110Z,3.58
2019-02-26T03:42:53.292Z,3.77
2019-02-26T03:45:24.825Z,3.77
2019-02-26T03:47:55.383Z,3.70
2019-02-26T03:50:27.211Z,3.77
2019-02-26T03:52:56.646Z,3.69
2019-02-26T03:55:26.132Z,3.67
2019-02-26T03:57:57.143Z,3.62
2019-02-26T04:00:26.473Z,3.60
2019-02-26T04:02:56.090Z,3.78
2019-02-26T04:05:25.757Z,3.74
2019-02-26T04:07:56.841Z,3.69
2019-02-26T04:10:26.321Z,3.66
2019-02-26T04:12:58.064Z,3.65
2019-02-26T04:15:27.955Z,3.56
2019-02-26T04:17:58.188Z,3.43
2019-02-26T04:20:27.955Z,3.47
2019-02-26T04:22:57.418Z,3.37
2019-02-26T04:25:33.363Z,3.31
2019-02-26T04:28:07.990Z,3.45
2019-02-26T04:30:41.633Z,3.47
2019-02-26T04:33:15.039Z,3.28
2019-02-26T04:35:48.274Z,3.24
2019-02-26T04:38:23.350Z,3.15
2019-02-26T04:41:00.168Z,3.25
2019-02-26T04:43:33.503Z,3.24
2019-02-26T04:46:07.483Z,3.07
2019-02-26T04:48:39.207Z,3.06
2019-02-26T04:51:08.798Z,3.00
2019-02-26T04:53:38.348Z,2.95
2019-02-26T04:56:12.874Z,2.84
2019-02-26T04:58:41.931Z,2.88
2019-02-26T05:01:12.990Z,2.86
2019-02-26T05:03:42.275Z,2.95
2019-02-26T05:06:12.138Z,3.01
2019-02-26T05:08:42.874Z,2.92
2019-02-26T05:11:17.443Z,2.90
2019-02-26T05:13:43.973Z,3.08
2019-02-26T05:16:13.585Z,3.12
2019-02-26T05:18:44.462Z,2.95
2019-02-26T05:21:14.308Z,2.95
2019-02-26T05:23:43.769Z,3.04
2019-02-26T05:26:15.234Z,2.93
2019-02-26T05:28:46.918Z,2.93
2019-02-26T05:31:17.469Z,2.72
2019-02-26T05:33:49.433Z,2.79
2019-02-26T05:36:18.011Z,2.84
2019-02-26T05:38:49.377Z,2.74
2019-02-26T05:41:18.617Z,2.66
2019-02-26T05:43:52.072Z,2.55
2019-02-26T05:46:22.015Z,2.54
2019-02-26T05:48:51.253Z,2.49
2019-02-26T05:51:20.787Z,2.58
2019-02-26T05:53:50.285Z,2.53
2019-02-26T05:56:20.879Z,2.53
2019-02-26T05:58:50.879Z,2.47
2019-02-26T06:01:22.527Z,2.55
2019-02-26T06:03:52.498Z,2.73
2019-02-26T06:06:22.028Z,2.79
2019-02-26T06:08:51.579Z,2.49
2019-02-26T06:11:21.184Z,2.50
2019-02-26T06:13:50.759Z,2.56
2019-02-26T06:16:21.841Z,2.62
2019-02-26T06:18:52.601Z,2.77
2019-02-26T06:21:23.594Z,2.87
2019-02-26T06:23:55.238Z,2.85
2019-02-26T06:26:28.126Z,3.02
2019-02-26T06:28:56.026Z,3.04
2019-02-26T06:31:25.488Z,3.22
2019-02-26T06:33:55.022Z,3.51
2019-02-26T06:36:25.756Z,3.65
2019-02-26T06:38:56.449Z,3.90
2019-02-26T06:41:26.863Z,4.16
2019-02-26T06:43:56.700Z,4.50
2019-02-26T06:46:29.363Z,4.92
2019-02-26T06:48:58.956Z,5.49
2019-02-26T06:51:30.634Z,6.32
2019-02-26T06:54:01.078Z,6.45
2019-02-26T06:56:34.485Z,6.58
2019-02-26T06:59:07.004Z,7.76
2019-02-26T07:01:37.906Z,8.51
2019-02-26T07:04:12.192Z,9.26
2019-02-26T07:06:38.738Z,10.06
2019-02-26T07:09:27.527Z,10.46
2019-02-26T07:11:56.745Z,10.85
2019-02-26T07:14:27.406Z,10.01
2019-02-26T07:16:59.191Z,10.82
2019-02-26T07:19:30.735Z,9.42
2019-02-26T07:22:00.084Z,9.46
2019-02-26T07:24:29.609Z,9.64
2019-02-26T07:26:59.260Z,10.09
2019-02-26T07:29:32.820Z,10.77
2019-02-26T07:32:00.091Z,9.70
2019-02-26T07:34:30.253Z,10.30
2019-02-26T07:36:59.891Z,10.47
2019-02-26T07:39:29.736Z,11.38
2019-02-26T07:41:59.625Z,11.97
2019-02-26T07:44:29.742Z,12.27
2019-02-26T07:47:00.906Z,12.76
2019-02-26T07:49:30.700Z,12.71
2019-02-26T07:52:03.238Z,12.78
2019-02-26T07:54:31.645Z,11.93
2019-02-26T07:57:02.693Z,12.43
2019-02-26T07:59:34.428Z,11.55
2019-02-26T08:02:03.798Z,10.77
2019-02-26T08:04:36.244Z,9.11
2019-02-26T08:07:05.887Z,9.53
2019-02-26T08:09:35.127Z,9.73
2019-02-26T08:12:08.982Z,9.50
2019-02-26T08:14:38.455Z,9.45
2019-02-26T08:17:09.469Z,10.80
2019-02-26T08:19:39.888Z,9.50
2019-02-26T08:22:10.332Z,10.04
2019-02-26T08:24:39.884Z,11.24
2019-02-26T08:27:11.583Z,11.61
2019-02-26T08:29:40.872Z,11.44
2019-02-26T08:32:13.726Z,11.50
2019-02-26T08:34:41.844Z,10.21
2019-02-26T08:37:11.388Z,10.05
2019-02-26T08:39:40.980Z,9.64
2019-02-26T08:42:10.818Z,10.23
2019-02-26T08:44:40.355Z,9.84
2019-02-26T08:47:12.018Z,10.23
2019-02-26T08:49:43.473Z,10.97
2019-02-26T08:52:12.739Z,10.18
2019-02-26T08:54:42.350Z,10.65
2019-02-26T08:57:12.091Z,10.34
2019-02-26T08:59:42.267Z,10.42
2019-02-26T09:02:12.847Z,10.64
2019-02-26T09:04:43.058Z,9.50
2019-02-26T09:07:14.099Z,9.50
2019-02-26T09:09:45.928Z,9.57
2019-02-26T09:12:17.521Z,8.92
2019-02-26T09:14:48.183Z,8.40
2019-02-26T09:17:22.914Z,8.31
2019-02-26T09:19:50.890Z,8.32
2019-02-26T09:22:21.659Z,8.07
2019-02-26T09:24:54.340Z,8.45
2019-02-26T09:27:24.723Z,8.68
2019-02-26T09:29:54.772Z,8.32
2019-02-26T09:32:25.901Z,8.33
2019-02-26T09:34:57.395Z,8.24
2019-02-26T09:37:26.568Z,8.75
2019-02-26T09:39:57.379Z,9.01
2019-02-26T09:42:27.903Z,9.12
2019-02-26T09:45:00.216Z,9.34
2019-02-26T09:47:32.838Z,9.40
2019-02-26T09:50:00.839Z,9.58
2019-02-26T09:52:32.475Z,9.26
2019-02-26T09:55:21.002Z,9.18
2019-02-26T09:57:50.660Z,9.59
2019-02-26T10:00:25.319Z,9.98
2019-02-26T10:02:52.061Z,9.89
2019-02-26T10:05:21.752Z,9.85
2019-02-26T10:07:54.357Z,10.05
2019-02-26T10:10:27.531Z,9.96
2019-02-26T10:12:57.433Z,10.15
2019-02-26T10:15:26.101Z,10.20
2019-02-26T10:17:58.249Z,10.13
2019-02-26T10:20:29.691Z,10.55
2019-02-26T10:23:02.853Z,10.37
2019-02-26T10:25:34.847Z,10.82
2019-02-26T10:28:08.821Z,10.86
2019-02-26T10:30:36.944Z,11.10
2019-02-26T10:33:07.854Z,11.12
2019-02-26T10:35:39.705Z,11.28
2019-02-26T10:38:11.440Z,11.59
2019-02-26T10:40:50.641Z,11.59
2019-02-26T10:43:11.576Z,11.50
2019-02-26T10:45:44.195Z,11.65
2019-02-26T10:48:13.791Z,11.93
2019-02-26T10:50:46.930Z,12.10
2019-02-26T10:53:18.927Z,12.32
2019-02-26T10:55:46.218Z,12.38
2019-02-26T10:58:16.446Z,12.41
2019-02-26T11:00:47.093Z,12.27
2019-02-26T11:03:20.255Z,12.06
2019-02-26T11:05:52.125Z,12.27
2019-02-26T11:08:24.495Z,12.41
2019-02-26T11:11:33.346Z,12.71
2019-02-26T11:14:23.176Z,12.97
2019-02-26T11:16:52.723Z,13.14
2019-02-26T11:19:24.604Z,13.29
2019-02-26T11:21:55.999Z,13.46
2019-02-26T11:24:44.057Z,13.54
2019-02-26T11:27:13.501Z,13.56
2019-02-26T11:29:43.131Z,13.72
2019-02-26T11:32:15.043Z,13.54
2019-02-26T11:34:43.854Z,13.71
2019-02-26T11:37:13.339Z,13.84
2019-02-26T11:39:42.833Z,13.87
2019-02-26T11:42:12.399Z,14.00
2019-02-26T11:44:41.887Z,14.12
2019-02-26T11:47:13.642Z,14.21
2019-02-26T11:49:44.294Z,14.26
2019-02-26T11:52:14.263Z,14.31
2019-02-26T11:54:44.628Z,14.22
2019-02-26T11:57:17.770Z,14.23
2019-02-26T11:59:47.084Z,14.32
2019-02-26T12:02:25.242Z,14.18
2019-02-26T12:04:47.695Z,14.05
2019-02-26T12:07:17.265Z,14.12
2019-02-26T12:09:46.718Z,14.23
2019-02-26T12:12:16.262Z,14.67
2019-02-26T12:14:48.337Z,14.52
2019-02-26T12:17:17.013Z,14.74
2019-02-26T12:19:48.475Z,14.77
2019-02-26T12:22:17.995Z,15.07
2019-02-26T12:24:53.016Z,15.27
2019-02-26T12:27:20.922Z,15.45
2019-02-26T12:29:52.276Z,15.35
2019-02-26T12:32:24.876Z,15.42
2019-02-26T12:34:54.003Z,15.52
2019-02-26T12:37:23.529Z,15.59
2019-02-26T12:39:55.495Z,15.64
2019-02-26T12:42:25.185Z,15.72
2019-02-26T12:44:57.236Z,15.35
2019-02-26T12:48:06.465Z,15.60
2019-02-26T12:50:58.348Z,15.58
2019-02-26T12:53:27.684Z,15.88
2019-02-26T12:56:01.953Z,15.92
2019-02-26T12:58:29.708Z,15.74
2019-02-26T13:00:59.170Z,15.89
2019-02-26T13:03:28.684Z,16.06
2019-02-26T13:05:58.124Z,16.04
2019-02-26T13:08:28.857Z,16.17
2019-02-26T13:10:58.564Z,16.27
2019-02-26T13:13:28.176Z,16.27
2019-02-26T13:15:57.721Z,16.37
2019-02-26T13:18:27.284Z,16.43
2019-02-26T13:20:59.366Z,16.36
2019-02-26T13:23:27.929Z,16.58
2019-02-26T13:25:59.025Z,16.60
2019-02-26T13:28:29.706Z,16.64
2019-02-26T13:31:02.327Z,16.65
2019-02-26T13:33:36.957Z,16.67
2019-02-26T13:36:04.805Z,16.67
2019-02-26T13:38:40.666Z,16.68
2019-02-26T13:41:27.342Z,16.86
2019-02-26T13:43:35.794Z,16.94
2019-02-26T13:46:05.007Z,16.94
2019-02-26T13:48:34.613Z,16.68
2019-02-26T13:51:04.232Z,16.90
2019-02-26T13:53:33.711Z,17.03
2019-02-26T13:56:03.261Z,17.16
2019-02-26T13:58:32.807Z,17.15
2019-02-26T14:01:02.435Z,17.26
2019-02-26T14:03:32.137Z,17.27
2019-02-26T14:06:01.599Z,16.92
2019-02-26T14:08:31.264Z,16.76
2019-02-26T14:11:00.892Z,16.81
2019-02-26T14:13:30.552Z,16.69
2019-02-26T14:16:00.104Z,16.70
2019-02-26T14:18:29.723Z,16.89
2019-02-26T14:20:59.219Z,17.09
2019-02-26T14:23:34.745Z,17.00
2019-02-26T14:26:00.234Z,16.89
2019-02-26T14:28:29.865Z,17.01
2019-02-26T14:30:59.393Z,17.06
2019-02-26T14:33:28.858Z,17.11
2019-02-26T14:35:58.352Z,17.13
2019-02-26T14:38:27.844Z,17.35
2019-02-26T14:40:57.374Z,17.49
2019-02-26T14:43:26.956Z,17.29
2019-02-26T14:45:56.720Z,17.25
2019-02-26T14:48:26.224Z,17.19
2019-02-26T14:50:55.718Z,17.16
2019-02-26T14:53:25.212Z,17.29
2019-02-26T14:55:54.710Z,17.35
2019-02-26T14:58:24.175Z,17.30
2019-02-26T15:00:57.610Z,17.17
2019-02-26T15:03:24.884Z,17.19
2019-02-26T15:05:54.524Z,17.11
2019-02-26T15:08:24.264Z,17.08
2019-02-26T15:10:53.847Z,17.09
2019-02-26T15:13:25.603Z,17.01
2019-02-26T15:15:55.049Z,17.00
2019-02-26T15:18:24.654Z,16.96
2019-02-26T15:20:54.165Z,16.94
2019-02-26T15:23:23.633Z,16.92
2019-02-26T15:25:53.243Z,17.03
2019-02-26T15:28:24.170Z,17.02
2019-02-26T15:30:53.925Z,17.14
2019-02-26T15:33:24.004Z,17.06
2019-02-26T15:35:53.583Z,17.10
2019-02-26T15:38:23.120Z,16.90
2019-02-26T15:40:53.348Z,16.89
2019-02-26T15:43:24.524Z,16.89
2019-02-26T15:45:54.548Z,16.81
2019-02-26T15:48:24.107Z,16.74
2019-02-26T15:50:53.639Z,16.62
2019-02-26T15:53:23.779Z,16.56
2019-02-26T15:55:54.001Z,16.56
2019-02-26T15:58:23.403Z,16.53
2019-02-26T16:00:53.069Z,16.50
2019-02-26T16:03:22.505Z,16.36
2019-02-26T16:05:53.996Z,16.33
2019-02-26T16:08:23.519Z,16.27
2019-02-26T16:10:53.064Z,16.17
2019-02-26T16:13:22.630Z,16.07
2019-02-26T16:15:52.384Z,16.01
2019-02-26T16:18:22.205Z,15.86
2019-02-26T16:24:07.295Z,15.80
2019-02-26T16:26:38.431Z,15.82
2019-02-26T16:29:08.258Z,15.82
2019-02-26T16:31:58.567Z,15.78
2019-02-26T16:34:28.046Z,15.78
2019-02-26T16:36:57.846Z,15.64
2019-02-26T16:39:27.383Z,15.56
2019-02-26T16:41:57.027Z,15.59
2019-02-26T16:44:26.575Z,15.49
2019-02-26T16:47:16.925Z,15.37
2019-02-26T16:49:46.486Z,15.25
2019-02-26T16:52:15.855Z,15.26
2019-02-26T16:55:06.123Z,15.09
2019-02-26T16:57:35.655Z,14.95
2019-02-26T17:00:08.750Z,14.76
2019-02-26T17:02:38.185Z,14.67
2019-02-26T17:05:14.262Z,14.55
2019-02-26T17:07:41.599Z,14.43
2019-02-26T17:10:13.964Z,14.35
2019-02-26T17:12:45.356Z,14.42
2019-02-26T17:15:18.005Z,14.40
2019-02-26T17:17:47.024Z,14.38
2019-02-26T17:20:16.565Z,14.38
2019-02-26T17:22:46.112Z,14.32
2019-02-26T17:25:16.125Z,14.23
2019-02-26T17:27:46.424Z,14.14
2019-02-26T17:30:17.242Z,14.02
2019-02-26T17:32:46.893Z,14.04
2019-02-26T17:35:17.135Z,14.01
2019-02-26T17:37:46.769Z,13.81
2019-02-26T17:40:18.686Z,13.76
2019-02-26T17:42:48.871Z,13.73
2019-02-26T17:45:21.574Z,13.69
2019-02-26T17:47:51.092Z,13.52
2019-02-26T17:50:23.679Z,13.52
2019-02-26T17:52:53.407Z,13.43
2019-02-26T17:55:24.832Z,13.45
2019-02-26T17:57:54.404Z,13.30
2019-02-26T18:00:28.127Z,13.19
2019-02-26T18:02:57.676Z,13.15
2019-02-26T18:05:27.263Z,13.13
2019-02-26T18:07:56.818Z,12.99
2019-02-26T18:10:27.165Z,12.90
2019-02-26T18:12:56.864Z,12.87
2019-02-26T18:15:26.487Z,12.82
2019-02-26T18:17:56.128Z,12.85
2019-02-26T18:20:28.238Z,12.80
2019-02-26T18:22:59.854Z,12.75
2019-02-26T18:25:28.222Z,12.72
2019-02-26T18:27:57.848Z,12.67
2019-02-26T18:30:28.768Z,12.71
2019-02-26T18:32:59.242Z,12.47
2019-02-26T18:35:28.857Z,12.24
2019-02-26T18:37:58.340Z,12.08
2019-02-26T18:40:29.049Z,12.02
2019-02-26T18:42:58.703Z,11.87
2019-02-26T18:45:29.532Z,12.04
2019-02-26T18:47:59.246Z,11.96
2019-02-26T18:50:29.545Z,11.80
2019-02-26T18:52:59.256Z,11.73
2019-02-26T18:55:32.301Z,11.67
2019-02-26T18:58:00.048Z,11.61
2019-02-26T19:00:33.641Z,11.62
2019-02-26T19:03:03.170Z,11.59
2019-02-26T19:05:32.706Z,11.53
2019-02-26T19:08:05.600Z,11.43
2019-02-26T19:10:53.395Z,11.40
2019-02-26T19:13:43.699Z,11.40
2019-02-26T19:16:13.433Z,11.47
2019-02-26T19:18:43.119Z,11.52
2019-02-26T19:21:13.781Z,11.47
2019-02-26T19:23:43.249Z,11.62
2019-02-26T19:26:13.836Z,11.26
2019-02-26T19:28:44.058Z,11.11
2019-02-26T19:31:13.726Z,10.98
2019-02-26T19:33:43.355Z,10.91
2019-02-26T19:36:13.629Z,10.65
2019-02-26T19:38:43.327Z,10.56
2019-02-26T19:41:15.786Z,10.46
2019-02-26T19:43:45.545Z,10.47
2019-02-26T19:46:17.742Z,10.52
2019-02-26T19:48:46.352Z,10.47
2019-02-26T19:51:15.951Z,10.42
2019-02-26T19:53:45.551Z,10.43
2019-02-26T19:56:15.145Z,10.32
2019-02-26T19:58:44.948Z,10.25
2019-02-26T20:01:14.823Z,10.40
2019-02-26T20:03:44.443Z,10.39
2019-02-26T20:06:14.291Z,10.44
2019-02-26T20:08:43.883Z,10.51
2019-02-26T20:11:13.840Z,10.49
2019-02-26T20:13:43.496Z,10.43
2019-02-26T20:16:13.445Z,10.54
2019-02-26T20:18:43.082Z,10.56
2019-02-26T20:21:12.733Z,10.56
2019-02-26T20:23:42.590Z,10.43
2019-02-26T20:26:16.368Z,10.22
2019-02-26T20:28:48.229Z,10.06
2019-02-26T20:31:21.443Z,10.00
2019-02-26T20:34:11.091Z,10.03
2019-02-26T20:37:02.123Z,10.12
2019-02-26T20:39:32.449Z,10.00
2019-02-26T20:42:03.224Z,10.11
2019-02-26T20:44:32.966Z,9.96
2019-02-26T20:47:02.467Z,9.85
2019-02-26T20:49:31.946Z,9.82
2019-02-26T20:52:01.579Z,9.68
2019-02-26T20:54:32.822Z,9.59
2019-02-26T20:57:04.020Z,9.46
2019-02-26T20:59:33.699Z,9.46
2019-02-26T21:02:03.264Z,9.39
2019-02-26T21:07:49.537Z,9.27
2019-02-26T21:10:20.785Z,9.01
2019-02-26T21:12:50.573Z,9.01
2019-02-26T21:15:22.643Z,9.01
2019-02-26T21:17:52.153Z,9.02
2019-02-26T21:20:21.817Z,9.04
2019-02-26T21:22:54.622Z,9.03
2019-02-26T21:25:22.691Z,9.01
2019-02-26T21:27:52.226Z,9.02
2019-02-26T21:31:01.748Z,9.03
2019-02-26T21:33:31.380Z,8.97
2019-02-26T21:36:00.888Z,8.72
2019-02-26T21:38:30.541Z,8.58
2019-02-26T21:41:00.248Z,8.63
2019-02-26T21:43:29.855Z,8.58
2019-02-26T21:45:59.491Z,8.47
2019-02-26T21:48:28.990Z,8.58
2019-02-26T21:50:58.556Z,8.49
2019-02-26T21:53:28.087Z,8.45
2019-02-26T21:55:57.585Z,8.26
2019-02-26T21:58:27.457Z,8.26
2019-02-26T22:01:37.129Z,8.30
2019-02-26T22:04:06.794Z,8.17
2019-02-26T22:06:36.314Z,8.16
2019-02-26T22:09:06.421Z,8.11
2019-02-26T22:11:36.009Z,8.04
2019-02-26T22:14:05.537Z,7.98
2019-02-26T22:16:35.043Z,7.88
2019-02-26T22:19:04.771Z,7.96
2019-02-26T22:21:35.793Z,7.92
2019-02-26T22:24:07.091Z,7.87
2019-02-26T22:26:36.355Z,7.95
2019-02-26T22:29:07.897Z,7.84
2019-02-26T22:31:37.137Z,7.76
2019-02-26T22:34:06.551Z,7.77
2019-02-26T22:36:36.034Z,7.75
2019-02-26T22:39:06.209Z,7.65
2019-02-26T22:41:35.704Z,7.68
2019-02-26T22:44:05.263Z,7.66
2019-02-26T22:46:34.471Z,7.61
2019-02-26T22:49:04.086Z,7.50
2019-02-26T22:51:33.707Z,7.58
2019-02-26T22:54:03.183Z,7.46
2019-02-26T22:56:33.332Z,7.45
2019-02-26T22:59:02.837Z,7.54
2019-02-26T23:01:36.569Z,7.72
2019-02-26T23:04:06.480Z,7.71
2019-02-26T23:09:45.679Z,7.41
2019-02-26T23:12:15.558Z,7.27
2019-02-26T23:14:45.110Z,7.22
2019-02-26T23:17:15.018Z,7.08
2019-02-26T23:19:44.567Z,7.19
2019-02-26T23:22:14.187Z,7.32
2019-02-26T23:24:44.466Z,7.25
2019-02-26T23:27:15.183Z,7.16
2019-02-26T23:29:45.496Z,7.02
2019-02-26T23:32:15.917Z,6.97
2019-02-26T23:34:48.523Z,6.92
2019-02-26T23:37:18.054Z,6.81
2019-02-26T23:39:47.632Z,6.82
2019-02-26T23:42:17.269Z,6.76
2019-02-26T23:44:50.898Z,6.88
2019-02-26T23:47:37.527Z,6.87
2019-02-26T23:50:08.440Z,6.82
2019-02-26T23:52:38.027Z,6.84
2019-02-26T23:55:13.408Z,6.75
2019-02-26T23:57:43.513Z,6.67
